Terminal Aerodrome Forecast
Issued by NWS

Home | Current Version | Previous Version | Text Only | Print | Product List | Glossary On
Versions: 1 2 3 4 5 6 7 8 9 10 11 12 13 14
000
FTUS41 KGYX 251529 AAA
TAFRKD
TAF AMD
KRKD 251529Z 2515/2612 22009G18KT P6SM BKN100
     FM260300 22007KT P6SM OVC100
     FM260500 23007KT 4SM BR OVC015
      AMD LTD TO CLD VIS AND WIND=

USA.gov is the U.S. government's official web portal to all federal, state and local government web resources and services.